sensor_id;sensor_type;location;lat;lon;timestamp;P1;durP1;ratioP1;P2;durP2;ratioP2
18838;SDS011;9548;56.920;14.804;2023-04-19T00:01:42;1.00;;;0.40;;
18838;SDS011;9548;56.920;14.804;2023-04-19T00:04:09;0.40;;;0.40;;
18838;SDS011;9548;56.920;14.804;2023-04-19T00:06:36;0.40;;;0.40;;
18838;SDS011;9548;56.920;14.804;2023-04-19T00:09:05;0.55;;;0.28;;
18838;SDS011;9548;56.920;14.804;2023-04-19T00:11:32;0.77;;;0.43;;
18838;SDS011;9548;56.920;14.804;2023-04-19T00:14:00;0.93;;;0.38;;
18838;SDS011;9548;56.920;14.804;2023-04-19T00:16:27;0.40;;;0.40;;
18838;SDS011;9548;56.920;14.804;2023-04-19T00:18:54;0.43;;;0.40;;
18838;SDS011;9548;56.920;14.804;2023-04-19T00:21:21;0.75;;;0.40;;
18838;SDS011;9548;56.920;14.804;2023-04-19T00:23:48;1.45;;;0.30;;
18838;SDS011;9548;56.920;14.804;2023-04-19T00:26:15;0.45;;;0.45;;
18838;SDS011;9548;56.920;14.804;2023-04-19T00:28:42;0.35;;;0.35;;
18838;SDS011;9548;56.920;14.804;2023-04-19T00:31:10;0.63;;;0.60;;
18838;SDS011;9548;56.920;14.804;2023-04-19T00:33:37;0.60;;;0.60;;
18838;SDS011;9548;56.920;14.804;2023-04-19T00:36:04;0.80;;;0.32;;
18838;SDS011;9548;56.920;14.804;2023-04-19T00:38:31;0.40;;;0.32;;
18838;SDS011;9548;56.920;14.804;2023-04-19T00:40:58;0.65;;;0.43;;
18838;SDS011;9548;56.920;14.804;2023-04-19T00:43:25;0.60;;;0.40;;
18838;SDS011;9548;56.920;14.804;2023-04-19T00:45:52;0.40;;;0.40;;
18838;SDS011;9548;56.920;14.804;2023-04-19T00:48:21;0.38;;;0.20;;
18838;SDS011;9548;56.920;14.804;2023-04-19T00:50:48;0.28;;;0.28;;
18838;SDS011;9548;56.920;14.804;2023-04-19T00:53:15;0.38;;;0.30;;
18838;SDS011;9548;56.920;14.804;2023-04-19T00:55:42;0.50;;;0.40;;
18838;SDS011;9548;56.920;14.804;2023-04-19T00:58:09;2.08;;;0.20;;
18838;SDS011;9548;56.920;14.804;2023-04-19T01:00:36;0.50;;;0.30;;
18838;SDS011;9548;56.920;14.804;2023-04-19T01:03:03;0.47;;;0.30;;
18838;SDS011;9548;56.920;14.804;2023-04-19T01:05:32;0.30;;;0.30;;
18838;SDS011;9548;56.920;14.804;2023-04-19T01:07:59;0.32;;;0.30;;
18838;SDS011;9548;56.920;14.804;2023-04-19T01:10:26;0.40;;;0.40;;
18838;SDS011;9548;56.920;14.804;2023-04-19T01:12:53;0.30;;;0.30;;
18838;SDS011;9548;56.920;14.804;2023-04-19T01:15:20;0.50;;;0.40;;
18838;SDS011;9548;56.920;14.804;2023-04-19T01:17:47;1.88;;;0.30;;
18838;SDS011;9548;56.920;14.804;2023-04-19T01:20:14;0.30;;;0.30;;
18838;SDS011;9548;56.920;14.804;2023-04-19T01:22:42;0.93;;;0.50;;
18838;SDS011;9548;56.920;14.804;2023-04-19T01:25:09;1.58;;;0.45;;
18838;SDS011;9548;56.920;14.804;2023-04-19T01:27:36;0.88;;;0.30;;
18838;SDS011;9548;56.920;14.804;2023-04-19T01:30:04;0.47;;;0.40;;
18838;SDS011;9548;56.920;14.804;2023-04-19T01:32:31;0.57;;;0.40;;
18838;SDS011;9548;56.920;14.804;2023-04-19T01:34:58;0.50;;;0.30;;
18838;SDS011;9548;56.920;14.804;2023-04-19T01:37:25;0.60;;;0.30;;
18838;SDS011;9548;56.920;14.804;2023-04-19T01:39:54;0.20;;;0.20;;
18838;SDS011;9548;56.920;14.804;2023-04-19T01:42:20;1.40;;;0.47;;
18838;SDS011;9548;56.920;14.804;2023-04-19T01:44:47;0.73;;;0.28;;
18838;SDS011;9548;56.920;14.804;2023-04-19T01:47:14;0.88;;;0.30;;
18838;SDS011;9548;56.920;14.804;2023-04-19T01:49:41;0.40;;;0.30;;
18838;SDS011;9548;56.920;14.804;2023-04-19T01:52:08;1.10;;;0.40;;
18838;SDS011;9548;56.920;14.804;2023-04-19T01:54:35;0.22;;;0.22;;
18838;SDS011;9548;56.920;14.804;2023-04-19T01:57:03;0.43;;;0.20;;
18838;SDS011;9548;56.920;14.804;2023-04-19T01:59:30;0.40;;;0.35;;
18838;SDS011;9548;56.920;14.804;2023-04-19T02:01:57;0.30;;;0.30;;
18838;SDS011;9548;56.920;14.804;2023-04-19T02:04:24;0.55;;;0.30;;
18838;SDS011;9548;56.920;14.804;2023-04-19T02:06:51;0.55;;;0.30;;
18838;SDS011;9548;56.920;14.804;2023-04-19T02:09:18;4.40;;;0.32;;
18838;SDS011;9548;56.920;14.804;2023-04-19T02:11:45;0.20;;;0.20;;
18838;SDS011;9548;56.920;14.804;2023-04-19T02:14:13;0.20;;;0.20;;
18838;SDS011;9548;56.920;14.804;2023-04-19T02:16:40;0.30;;;0.30;;
18838;SDS011;9548;56.920;14.804;2023-04-19T02:19:08;0.40;;;0.30;;
18838;SDS011;9548;56.920;14.804;2023-04-19T02:21:34;0.73;;;0.30;;
18838;SDS011;9548;56.920;14.804;2023-04-19T02:24:02;0.55;;;0.30;;
18838;SDS011;9548;56.920;14.804;2023-04-19T02:26:29;1.48;;;0.30;;
18838;SDS011;9548;56.920;14.804;2023-04-19T02:28:56;0.82;;;0.22;;
18838;SDS011;9548;56.920;14.804;2023-04-19T02:31:24;0.30;;;0.30;;
18838;SDS011;9548;56.920;14.804;2023-04-19T02:33:51;1.83;;;0.30;;
18838;SDS011;9548;56.920;14.804;2023-04-19T02:36:18;1.20;;;0.35;;
18838;SDS011;9548;56.920;14.804;2023-04-19T02:38:45;3.08;;;0.50;;
18838;SDS011;9548;56.920;14.804;2023-04-19T02:41:12;0.45;;;0.40;;
18838;SDS011;9548;56.920;14.804;2023-04-19T02:43:39;0.30;;;0.30;;
18838;SDS011;9548;56.920;14.804;2023-04-19T02:46:06;0.32;;;0.20;;
18838;SDS011;9548;56.920;14.804;2023-04-19T02:48:34;0.50;;;0.43;;
18838;SDS011;9548;56.920;14.804;2023-04-19T02:51:01;0.60;;;0.50;;
18838;SDS011;9548;56.920;14.804;2023-04-19T02:53:28;0.45;;;0.32;;
18838;SDS011;9548;56.920;14.804;2023-04-19T02:55:55;0.40;;;0.20;;
18838;SDS011;9548;56.920;14.804;2023-04-19T02:58:22;0.15;;;0.15;;
18838;SDS011;9548;56.920;14.804;2023-04-19T03:00:49;0.65;;;0.30;;
18838;SDS011;9548;56.920;14.804;2023-04-19T03:03:16;0.35;;;0.15;;
18838;SDS011;9548;56.920;14.804;2023-04-19T03:05:44;0.10;;;0.10;;
18838;SDS011;9548;56.920;14.804;2023-04-19T03:08:11;0.40;;;0.30;;
18838;SDS011;9548;56.920;14.804;2023-04-19T03:10:38;0.30;;;0.30;;
18838;SDS011;9548;56.920;14.804;2023-04-19T03:13:05;1.05;;;0.30;;
18838;SDS011;9548;56.920;14.804;2023-04-19T03:15:34;0.38;;;0.30;;
18838;SDS011;9548;56.920;14.804;2023-04-19T03:18:01;1.65;;;0.38;;
18838;SDS011;9548;56.920;14.804;2023-04-19T03:20:28;0.40;;;0.30;;
18838;SDS011;9548;56.920;14.804;2023-04-19T03:22:56;0.25;;;0.20;;
18838;SDS011;9548;56.920;14.804;2023-04-19T03:25:23;1.00;;;0.35;;
18838;SDS011;9548;56.920;14.804;2023-04-19T03:27:50;0.73;;;0.20;;
18838;SDS011;9548;56.920;14.804;2023-04-19T03:30:17;0.40;;;0.40;;
18838;SDS011;9548;56.920;14.804;2023-04-19T03:32:45;0.28;;;0.15;;
18838;SDS011;9548;56.920;14.804;2023-04-19T03:35:12;0.45;;;0.40;;
18838;SDS011;9548;56.920;14.804;2023-04-19T03:37:39;0.50;;;0.30;;
18838;SDS011;9548;56.920;14.804;2023-04-19T03:40:09;0.20;;;0.20;;
18838;SDS011;9548;56.920;14.804;2023-04-19T03:42:36;1.23;;;0.30;;
18838;SDS011;9548;56.920;14.804;2023-04-19T03:45:03;3.65;;;0.20;;
18838;SDS011;9548;56.920;14.804;2023-04-19T03:47:30;0.30;;;0.30;;
18838;SDS011;9548;56.920;14.804;2023-04-19T03:49:57;3.08;;;1.10;;
18838;SDS011;9548;56.920;14.804;2023-04-19T03:52:24;0.47;;;0.35;;
18838;SDS011;9548;56.920;14.804;2023-04-19T03:54:51;0.82;;;0.40;;
18838;SDS011;9548;56.920;14.804;2023-04-19T03:57:20;2.50;;;0.30;;
18838;SDS011;9548;56.920;14.804;2023-04-19T03:59:47;0.38;;;0.38;;
18838;SDS011;9548;56.920;14.804;2023-04-19T04:02:14;1.55;;;0.35;;
18838;SDS011;9548;56.920;14.804;2023-04-19T04:04:41;0.90;;;0.35;;
18838;SDS011;9548;56.920;14.804;2023-04-19T04:07:08;0.30;;;0.30;;
18838;SDS011;9548;56.920;14.804;2023-04-19T04:09:34;0.60;;;0.20;;
18838;SDS011;9548;56.920;14.804;2023-04-19T04:12:01;0.30;;;0.30;;
18838;SDS011;9548;56.920;14.804;2023-04-19T04:14:30;0.35;;;0.28;;
18838;SDS011;9548;56.920;14.804;2023-04-19T04:16:57;1.02;;;0.40;;
18838;SDS011;9548;56.920;14.804;2023-04-19T04:19:23;0.30;;;0.30;;
18838;SDS011;9548;56.920;14.804;2023-04-19T04:21:51;0.22;;;0.22;;
18838;SDS011;9548;56.920;14.804;2023-04-19T04:24:18;1.90;;;0.40;;
18838;SDS011;9548;56.920;14.804;2023-04-19T04:26:46;1.25;;;0.50;;
18838;SDS011;9548;56.920;14.804;2023-04-19T04:29:14;0.30;;;0.30;;
18838;SDS011;9548;56.920;14.804;2023-04-19T04:31:42;0.30;;;0.30;;
18838;SDS011;9548;56.920;14.804;2023-04-19T04:34:09;1.75;;;0.30;;
18838;SDS011;9548;56.920;14.804;2023-04-19T04:36:36;0.20;;;0.20;;
18838;SDS011;9548;56.920;14.804;2023-04-19T04:39:03;0.20;;;0.20;;
18838;SDS011;9548;56.920;14.804;2023-04-19T04:41:34;0.30;;;0.30;;
18838;SDS011;9548;56.920;14.804;2023-04-19T04:44:01;1.00;;;0.40;;
18838;SDS011;9548;56.920;14.804;2023-04-19T04:46:28;0.30;;;0.30;;
18838;SDS011;9548;56.920;14.804;2023-04-19T04:48:57;0.65;;;0.32;;
18838;SDS011;9548;56.920;14.804;2023-04-19T04:51:23;0.75;;;0.40;;
18838;SDS011;9548;56.920;14.804;2023-04-19T04:53:51;2.88;;;0.40;;
18838;SDS011;9548;56.920;14.804;2023-04-19T04:56:18;1.08;;;0.40;;
18838;SDS011;9548;56.920;14.804;2023-04-19T04:58:45;0.77;;;0.40;;
18838;SDS011;9548;56.920;14.804;2023-04-19T05:01:12;3.03;;;0.32;;
18838;SDS011;9548;56.920;14.804;2023-04-19T05:03:43;1.23;;;0.40;;
18838;SDS011;9548;56.920;14.804;2023-04-19T05:06:12;0.40;;;0.40;;
18838;SDS011;9548;56.920;14.804;2023-04-19T05:08:38;0.40;;;0.30;;
18838;SDS011;9548;56.920;14.804;2023-04-19T05:11:05;5.82;;;0.65;;
18838;SDS011;9548;56.920;14.804;2023-04-19T05:13:35;0.55;;;0.30;;
18838;SDS011;9548;56.920;14.804;2023-04-19T05:16:02;0.77;;;0.50;;
18838;SDS011;9548;56.920;14.804;2023-04-19T05:18:30;0.45;;;0.40;;
18838;SDS011;9548;56.920;14.804;2023-04-19T05:20:57;0.28;;;0.28;;
18838;SDS011;9548;56.920;14.804;2023-04-19T05:23:25;2.05;;;0.30;;
18838;SDS011;9548;56.920;14.804;2023-04-19T05:25:52;1.08;;;0.40;;
18838;SDS011;9548;56.920;14.804;2023-04-19T05:28:19;0.95;;;0.40;;
18838;SDS011;9548;56.920;14.804;2023-04-19T05:30:46;0.65;;;0.40;;
18838;SDS011;9548;56.920;14.804;2023-04-19T05:33:13;5.82;;;0.68;;
18838;SDS011;9548;56.920;14.804;2023-04-19T05:35:40;1.60;;;0.50;;
18838;SDS011;9548;56.920;14.804;2023-04-19T05:38:07;1.35;;;0.40;;
18838;SDS011;9548;56.920;14.804;2023-04-19T05:40:35;0.77;;;0.50;;
18838;SDS011;9548;56.920;14.804;2023-04-19T05:43:04;4.78;;;0.60;;
18838;SDS011;9548;56.920;14.804;2023-04-19T05:45:31;4.22;;;0.73;;
18838;SDS011;9548;56.920;14.804;2023-04-19T05:47:58;0.88;;;0.50;;
18838;SDS011;9548;56.920;14.804;2023-04-19T05:50:24;0.40;;;0.40;;
18838;SDS011;9548;56.920;14.804;2023-04-19T05:52:51;0.50;;;0.20;;
18838;SDS011;9548;56.920;14.804;2023-04-19T05:55:18;0.63;;;0.47;;
18838;SDS011;9548;56.920;14.804;2023-04-19T05:57:47;0.50;;;0.50;;
18838;SDS011;9548;56.920;14.804;2023-04-19T06:00:14;2.13;;;0.47;;
18838;SDS011;9548;56.920;14.804;2023-04-19T06:02:41;0.68;;;0.35;;
18838;SDS011;9548;56.920;14.804;2023-04-19T06:05:09;0.50;;;0.50;;
18838;SDS011;9548;56.920;14.804;2023-04-19T06:07:35;1.80;;;0.60;;
18838;SDS011;9548;56.920;14.804;2023-04-19T06:10:03;0.88;;;0.40;;
18838;SDS011;9548;56.920;14.804;2023-04-19T06:12:30;0.57;;;0.47;;
18838;SDS011;9548;56.920;14.804;2023-04-19T06:14:59;1.02;;;0.50;;
18838;SDS011;9548;56.920;14.804;2023-04-19T06:17:25;4.47;;;0.60;;
18838;SDS011;9548;56.920;14.804;2023-04-19T06:19:53;2.15;;;0.60;;
18838;SDS011;9548;56.920;14.804;2023-04-19T06:22:20;1.17;;;0.55;;
18838;SDS011;9548;56.920;14.804;2023-04-19T06:24:47;2.55;;;0.60;;
18838;SDS011;9548;56.920;14.804;2023-04-19T06:27:15;1.95;;;0.63;;
18838;SDS011;9548;56.920;14.804;2023-04-19T06:29:42;2.72;;;0.50;;
18838;SDS011;9548;56.920;14.804;2023-04-19T06:32:10;1.77;;;0.40;;
18838;SDS011;9548;56.920;14.804;2023-04-19T06:34:37;0.63;;;0.55;;
18838;SDS011;9548;56.920;14.804;2023-04-19T06:37:04;0.98;;;0.55;;
18838;SDS011;9548;56.920;14.804;2023-04-19T06:39:31;0.75;;;0.60;;
18838;SDS011;9548;56.920;14.804;2023-04-19T06:41:58;0.50;;;0.50;;
18838;SDS011;9548;56.920;14.804;2023-04-19T06:44:26;0.60;;;0.57;;
18838;SDS011;9548;56.920;14.804;2023-04-19T06:46:53;1.60;;;0.50;;
18838;SDS011;9548;56.920;14.804;2023-04-19T06:49:21;1.27;;;0.50;;
18838;SDS011;9548;56.920;14.804;2023-04-19T06:51:48;1.98;;;0.50;;
18838;SDS011;9548;56.920;14.804;2023-04-19T06:54:15;1.70;;;0.60;;
18838;SDS011;9548;56.920;14.804;2023-04-19T06:56:42;2.83;;;0.60;;
18838;SDS011;9548;56.920;14.804;2023-04-19T06:59:11;3.05;;;0.60;;
18838;SDS011;9548;56.920;14.804;2023-04-19T07:01:38;1.45;;;0.63;;
18838;SDS011;9548;56.920;14.804;2023-04-19T07:04:05;2.75;;;0.77;;
18838;SDS011;9548;56.920;14.804;2023-04-19T07:06:34;1.25;;;0.60;;
18838;SDS011;9548;56.920;14.804;2023-04-19T07:09:01;1.05;;;0.77;;
18838;SDS011;9548;56.920;14.804;2023-04-19T07:11:29;0.80;;;0.65;;
18838;SDS011;9548;56.920;14.804;2023-04-19T07:13:56;1.67;;;0.60;;
18838;SDS011;9548;56.920;14.804;2023-04-19T07:16:23;4.78;;;0.73;;
18838;SDS011;9548;56.920;14.804;2023-04-19T07:18:50;1.08;;;0.70;;
18838;SDS011;9548;56.920;14.804;2023-04-19T07:21:17;1.33;;;0.77;;
18838;SDS011;9548;56.920;14.804;2023-04-19T07:23:46;1.17;;;0.82;;
18838;SDS011;9548;56.920;14.804;2023-04-19T07:26:13;1.95;;;0.85;;
18838;SDS011;9548;56.920;14.804;2023-04-19T07:28:40;1.17;;;0.70;;
18838;SDS011;9548;56.920;14.804;2023-04-19T07:31:07;0.55;;;0.55;;
18838;SDS011;9548;56.920;14.804;2023-04-19T07:33:39;2.28;;;0.77;;
18838;SDS011;9548;56.920;14.804;2023-04-19T07:36:06;2.08;;;0.80;;
18838;SDS011;9548;56.920;14.804;2023-04-19T07:38:33;1.67;;;0.90;;
18838;SDS011;9548;56.920;14.804;2023-04-19T07:41:02;0.95;;;0.68;;
18838;SDS011;9548;56.920;14.804;2023-04-19T07:43:29;0.98;;;0.60;;
18838;SDS011;9548;56.920;14.804;2023-04-19T07:45:56;2.72;;;0.90;;
18838;SDS011;9548;56.920;14.804;2023-04-19T07:48:23;0.85;;;0.80;;
18838;SDS011;9548;56.920;14.804;2023-04-19T07:50:50;4.55;;;0.75;;
18838;SDS011;9548;56.920;14.804;2023-04-19T07:53:17;2.47;;;0.70;;
18838;SDS011;9548;56.920;14.804;2023-04-19T07:55:44;1.17;;;0.80;;
18838;SDS011;9548;56.920;14.804;2023-04-19T07:58:12;2.35;;;0.70;;
18838;SDS011;9548;56.920;14.804;2023-04-19T08:00:39;1.17;;;0.75;;
18838;SDS011;9548;56.920;14.804;2023-04-19T08:03:06;0.93;;;0.82;;
18838;SDS011;9548;56.920;14.804;2023-04-19T08:05:33;0.98;;;0.65;;
18838;SDS011;9548;56.920;14.804;2023-04-19T08:08:00;1.67;;;0.93;;
18838;SDS011;9548;56.920;14.804;2023-04-19T08:10:29;0.90;;;0.70;;
18838;SDS011;9548;56.920;14.804;2023-04-19T08:12:56;1.23;;;0.70;;
18838;SDS011;9548;56.920;14.804;2023-04-19T08:15:24;1.45;;;0.90;;
18838;SDS011;9548;56.920;14.804;2023-04-19T08:17:51;1.05;;;0.70;;
18838;SDS011;9548;56.920;14.804;2023-04-19T08:20:18;1.40;;;0.88;;
18838;SDS011;9548;56.920;14.804;2023-04-19T08:22:46;3.33;;;0.65;;
18838;SDS011;9548;56.920;14.804;2023-04-19T08:25:13;3.15;;;0.80;;
18838;SDS011;9548;56.920;14.804;2023-04-19T08:27:40;0.88;;;0.80;;
18838;SDS011;9548;56.920;14.804;2023-04-19T08:30:08;2.95;;;1.02;;
18838;SDS011;9548;56.920;14.804;2023-04-19T08:32:37;1.33;;;0.80;;
18838;SDS011;9548;56.920;14.804;2023-04-19T08:35:05;1.20;;;0.93;;
18838;SDS011;9548;56.920;14.804;2023-04-19T08:37:33;1.00;;;0.80;;
18838;SDS011;9548;56.920;14.804;2023-04-19T08:40:00;0.82;;;0.82;;
18838;SDS011;9548;56.920;14.804;2023-04-19T08:42:27;4.10;;;0.80;;
18838;SDS011;9548;56.920;14.804;2023-04-19T08:44:56;1.38;;;0.80;;
18838;SDS011;9548;56.920;14.804;2023-04-19T08:47:30;1.38;;;0.80;;
18838;SDS011;9548;56.920;14.804;2023-04-19T08:49:59;18.55;;;1.45;;
18838;SDS011;9548;56.920;14.804;2023-04-19T08:52:27;3.15;;;0.80;;
18838;SDS011;9548;56.920;14.804;2023-04-19T08:54:54;3.05;;;1.00;;
18838;SDS011;9548;56.920;14.804;2023-04-19T08:57:22;0.98;;;0.77;;
18838;SDS011;9548;56.920;14.804;2023-04-19T08:59:49;2.10;;;1.00;;
18838;SDS011;9548;56.920;14.804;2023-04-19T09:02:19;0.85;;;0.57;;
18838;SDS011;9548;56.920;14.804;2023-04-19T09:04:47;2.38;;;0.60;;
18838;SDS011;9548;56.920;14.804;2023-04-19T09:07:22;4.32;;;0.80;;
18838;SDS011;9548;56.920;14.804;2023-04-19T09:10:03;0.60;;;0.60;;
18838;SDS011;9548;56.920;14.804;2023-04-19T09:12:31;0.50;;;0.50;;
18838;SDS011;9548;56.920;14.804;2023-04-19T09:14:59;1.35;;;0.85;;
18838;SDS011;9548;56.920;14.804;2023-04-19T09:17:28;0.85;;;0.45;;
18838;SDS011;9548;56.920;14.804;2023-04-19T09:19:56;0.60;;;0.57;;
18838;SDS011;9548;56.920;14.804;2023-04-19T09:22:25;2.05;;;0.55;;
18838;SDS011;9548;56.920;14.804;2023-04-19T09:24:52;1.05;;;0.50;;
18838;SDS011;9548;56.920;14.804;2023-04-19T09:27:24;1.65;;;0.43;;
18838;SDS011;9548;56.920;14.804;2023-04-19T09:29:53;0.68;;;0.30;;
18838;SDS011;9548;56.920;14.804;2023-04-19T09:32:20;0.98;;;0.60;;
18838;SDS011;9548;56.920;14.804;2023-04-19T09:34:51;1.63;;;0.70;;
18838;SDS011;9548;56.920;14.804;2023-04-19T09:37:19;0.50;;;0.50;;
18838;SDS011;9548;56.920;14.804;2023-04-19T09:39:48;0.40;;;0.38;;
18838;SDS011;9548;56.920;14.804;2023-04-19T09:42:15;4.43;;;1.10;;
18838;SDS011;9548;56.920;14.804;2023-04-19T09:47:27;2.00;;;0.50;;
18838;SDS011;9548;56.920;14.804;2023-04-19T09:50:05;2.00;;;0.43;;
18838;SDS011;9548;56.920;14.804;2023-04-19T09:52:34;0.30;;;0.30;;
18838;SDS011;9548;56.920;14.804;2023-04-19T09:55:03;5.57;;;0.77;;
18838;SDS011;9548;56.920;14.804;2023-04-19T09:57:31;7.22;;;0.77;;
18838;SDS011;9548;56.920;14.804;2023-04-19T09:59:59;2.03;;;0.52;;
18838;SDS011;9548;56.920;14.804;2023-04-19T10:02:30;0.73;;;0.50;;
18838;SDS011;9548;56.920;14.804;2023-04-19T10:04:57;1.98;;;0.55;;
18838;SDS011;9548;56.920;14.804;2023-04-19T10:07:25;0.50;;;0.50;;
18838;SDS011;9548;56.920;14.804;2023-04-19T10:09:53;0.38;;;0.30;;
18838;SDS011;9548;56.920;14.804;2023-04-19T10:12:23;0.60;;;0.40;;
18838;SDS011;9548;56.920;14.804;2023-04-19T10:14:51;0.60;;;0.50;;
18838;SDS011;9548;56.920;14.804;2023-04-19T10:17:20;0.80;;;0.43;;
18838;SDS011;9548;56.920;14.804;2023-04-19T10:19:48;0.60;;;0.60;;
18838;SDS011;9548;56.920;14.804;2023-04-19T10:22:17;0.55;;;0.55;;
18838;SDS011;9548;56.920;14.804;2023-04-19T10:27:38;5.30;;;0.68;;
18838;SDS011;9548;56.920;14.804;2023-04-19T10:30:15;0.47;;;0.30;;
18838;SDS011;9548;56.920;14.804;2023-04-19T10:32:44;1.23;;;0.40;;
18838;SDS011;9548;56.920;14.804;2023-04-19T10:35:16;1.38;;;0.50;;
18838;SDS011;9548;56.920;14.804;2023-04-19T10:38:03;0.50;;;0.50;;
18838;SDS011;9548;56.920;14.804;2023-04-19T10:43:23;9.45;;;0.60;;
18838;SDS011;9548;56.920;14.804;2023-04-19T10:45:51;3.85;;;0.30;;
18838;SDS011;9548;56.920;14.804;2023-04-19T10:48:31;1.55;;;0.47;;
18838;SDS011;9548;56.920;14.804;2023-04-19T10:50:59;1.67;;;0.40;;
18838;SDS011;9548;56.920;14.804;2023-04-19T10:53:43;0.30;;;0.30;;
18838;SDS011;9548;56.920;14.804;2023-04-19T10:56:11;0.50;;;0.40;;
18838;SDS011;9548;56.920;14.804;2023-04-19T11:01:45;1.55;;;0.30;;
18838;SDS011;9548;56.920;14.804;2023-04-19T11:04:15;0.28;;;0.22;;
18838;SDS011;9548;56.920;14.804;2023-04-19T11:06:55;1.33;;;0.20;;
18838;SDS011;9548;56.920;14.804;2023-04-19T11:09:26;1.08;;;0.30;;
18838;SDS011;9548;56.920;14.804;2023-04-19T11:11:56;0.30;;;0.30;;
18838;SDS011;9548;56.920;14.804;2023-04-19T11:14:25;0.35;;;0.28;;
18838;SDS011;9548;56.920;14.804;2023-04-19T11:16:55;0.40;;;0.38;;
18838;SDS011;9548;56.920;14.804;2023-04-19T11:19:22;0.30;;;0.30;;
18838;SDS011;9548;56.920;14.804;2023-04-19T11:21:48;0.45;;;0.32;;
18838;SDS011;9548;56.920;14.804;2023-04-19T11:24:16;1.40;;;0.30;;
18838;SDS011;9548;56.920;14.804;2023-04-19T11:26:45;2.10;;;0.50;;
18838;SDS011;9548;56.920;14.804;2023-04-19T11:29:12;0.65;;;0.40;;
18838;SDS011;9548;56.920;14.804;2023-04-19T11:31:40;2.47;;;0.30;;
18838;SDS011;9548;56.920;14.804;2023-04-19T11:34:10;0.30;;;0.30;;
18838;SDS011;9548;56.920;14.804;2023-04-19T11:36:45;0.65;;;0.40;;
18838;SDS011;9548;56.920;14.804;2023-04-19T11:39:13;0.60;;;0.32;;
18838;SDS011;9548;56.920;14.804;2023-04-19T11:41:40;1.98;;;0.50;;
18838;SDS011;9548;56.920;14.804;2023-04-19T11:44:14;0.40;;;0.30;;
18838;SDS011;9548;56.920;14.804;2023-04-19T11:46:57;0.35;;;0.35;;
18838;SDS011;9548;56.920;14.804;2023-04-19T11:49:25;0.40;;;0.40;;
18838;SDS011;9548;56.920;14.804;2023-04-19T11:51:54;0.85;;;0.40;;
18838;SDS011;9548;56.920;14.804;2023-04-19T11:54:22;1.13;;;0.40;;
18838;SDS011;9548;56.920;14.804;2023-04-19T11:56:59;0.40;;;0.40;;
18838;SDS011;9548;56.920;14.804;2023-04-19T11:59:28;4.30;;;0.40;;
18838;SDS011;9548;56.920;14.804;2023-04-19T12:02:04;0.73;;;0.50;;
18838;SDS011;9548;56.920;14.804;2023-04-19T12:04:34;0.63;;;0.38;;
18838;SDS011;9548;56.920;14.804;2023-04-19T12:07:02;1.15;;;0.47;;
18838;SDS011;9548;56.920;14.804;2023-04-19T12:09:31;4.82;;;0.50;;
18838;SDS011;9548;56.920;14.804;2023-04-19T12:11:59;0.52;;;0.40;;
18838;SDS011;9548;56.920;14.804;2023-04-19T12:14:27;1.08;;;0.50;;
18838;SDS011;9548;56.920;14.804;2023-04-19T12:17:05;0.30;;;0.30;;
18838;SDS011;9548;56.920;14.804;2023-04-19T12:19:34;0.40;;;0.40;;
18838;SDS011;9548;56.920;14.804;2023-04-19T12:22:09;0.63;;;0.50;;
18838;SDS011;9548;56.920;14.804;2023-04-19T12:24:37;0.43;;;0.43;;
18838;SDS011;9548;56.920;14.804;2023-04-19T12:27:04;0.88;;;0.40;;
18838;SDS011;9548;56.920;14.804;2023-04-19T12:29:31;0.40;;;0.40;;
18838;SDS011;9548;56.920;14.804;2023-04-19T12:31:59;0.55;;;0.55;;
18838;SDS011;9548;56.920;14.804;2023-04-19T12:34:27;2.13;;;0.40;;
18838;SDS011;9548;56.920;14.804;2023-04-19T12:36:55;2.92;;;0.47;;
18838;SDS011;9548;56.920;14.804;2023-04-19T12:39:22;0.40;;;0.40;;
18838;SDS011;9548;56.920;14.804;2023-04-19T12:41:49;0.38;;;0.30;;
18838;SDS011;9548;56.920;14.804;2023-04-19T12:44:16;0.90;;;0.50;;
18838;SDS011;9548;56.920;14.804;2023-04-19T12:46:43;0.68;;;0.50;;
18838;SDS011;9548;56.920;14.804;2023-04-19T12:49:09;0.65;;;0.30;;
18838;SDS011;9548;56.920;14.804;2023-04-19T12:51:38;0.43;;;0.43;;
18838;SDS011;9548;56.920;14.804;2023-04-19T12:54:06;2.63;;;0.45;;
18838;SDS011;9548;56.920;14.804;2023-04-19T12:56:33;0.45;;;0.35;;
18838;SDS011;9548;56.920;14.804;2023-04-19T12:59:00;0.45;;;0.28;;
18838;SDS011;9548;56.920;14.804;2023-04-19T13:01:27;4.95;;;0.50;;
18838;SDS011;9548;56.920;14.804;2023-04-19T13:03:54;0.52;;;0.50;;
18838;SDS011;9548;56.920;14.804;2023-04-19T13:06:21;1.30;;;0.50;;
18838;SDS011;9548;56.920;14.804;2023-04-19T13:08:49;0.73;;;0.45;;
18838;SDS011;9548;56.920;14.804;2023-04-19T13:11:16;0.32;;;0.32;;
18838;SDS011;9548;56.920;14.804;2023-04-19T13:13:47;2.17;;;0.40;;
18838;SDS011;9548;56.920;14.804;2023-04-19T13:16:15;0.55;;;0.45;;
18838;SDS011;9548;56.920;14.804;2023-04-19T13:18:42;8.27;;;0.70;;
18838;SDS011;9548;56.920;14.804;2023-04-19T13:21:09;3.20;;;0.30;;
18838;SDS011;9548;56.920;14.804;2023-04-19T13:23:36;1.23;;;0.45;;
18838;SDS011;9548;56.920;14.804;2023-04-19T13:26:04;1.05;;;0.40;;
18838;SDS011;9548;56.920;14.804;2023-04-19T13:28:39;5.13;;;0.40;;
18838;SDS011;9548;56.920;14.804;2023-04-19T13:31:07;2.05;;;0.45;;
18838;SDS011;9548;56.920;14.804;2023-04-19T13:33:34;13.10;;;1.13;;
18838;SDS011;9548;56.920;14.804;2023-04-19T13:36:01;0.50;;;0.47;;
18838;SDS011;9548;56.920;14.804;2023-04-19T13:38:28;1.70;;;0.40;;
18838;SDS011;9548;56.920;14.804;2023-04-19T13:40:55;0.55;;;0.30;;
18838;SDS011;9548;56.920;14.804;2023-04-19T13:43:23;0.70;;;0.50;;
18838;SDS011;9548;56.920;14.804;2023-04-19T13:45:50;0.52;;;0.47;;
18838;SDS011;9548;56.920;14.804;2023-04-19T13:48:17;1.45;;;0.50;;
18838;SDS011;9548;56.920;14.804;2023-04-19T13:50:44;2.35;;;0.52;;
18838;SDS011;9548;56.920;14.804;2023-04-19T13:53:11;3.05;;;0.50;;
18838;SDS011;9548;56.920;14.804;2023-04-19T13:55:38;0.75;;;0.45;;
18838;SDS011;9548;56.920;14.804;2023-04-19T13:58:05;6.07;;;0.85;;
18838;SDS011;9548;56.920;14.804;2023-04-19T14:00:33;0.93;;;0.50;;
18838;SDS011;9548;56.920;14.804;2023-04-19T14:03:00;2.22;;;0.65;;
18838;SDS011;9548;56.920;14.804;2023-04-19T14:05:27;1.65;;;0.60;;
18838;SDS011;9548;56.920;14.804;2023-04-19T14:07:54;1.02;;;0.50;;
18838;SDS011;9548;56.920;14.804;2023-04-19T14:10:21;1.75;;;0.60;;
18838;SDS011;9548;56.920;14.804;2023-04-19T14:12:50;1.95;;;0.50;;
18838;SDS011;9548;56.920;14.804;2023-04-19T14:15:17;5.40;;;0.60;;
18838;SDS011;9548;56.920;14.804;2023-04-19T14:17:46;0.50;;;0.50;;
18838;SDS011;9548;56.920;14.804;2023-04-19T14:20:13;2.22;;;0.82;;
18838;SDS011;9548;56.920;14.804;2023-04-19T14:22:40;1.13;;;0.82;;
18838;SDS011;9548;56.920;14.804;2023-04-19T14:25:07;1.83;;;0.70;;
18838;SDS011;9548;56.920;14.804;2023-04-19T14:27:34;0.60;;;0.60;;
18838;SDS011;9548;56.920;14.804;2023-04-19T14:30:02;3.85;;;0.70;;
18838;SDS011;9548;56.920;14.804;2023-04-19T14:32:30;0.60;;;0.60;;
18838;SDS011;9548;56.920;14.804;2023-04-19T14:34:58;8.27;;;1.00;;
18838;SDS011;9548;56.920;14.804;2023-04-19T14:37:26;2.72;;;0.70;;
18838;SDS011;9548;56.920;14.804;2023-04-19T14:39:53;0.80;;;0.65;;
18838;SDS011;9548;56.920;14.804;2023-04-19T14:42:20;0.75;;;0.70;;
18838;SDS011;9548;56.920;14.804;2023-04-19T14:44:48;0.70;;;0.70;;
18838;SDS011;9548;56.920;14.804;2023-04-19T14:47:16;2.55;;;0.80;;
18838;SDS011;9548;56.920;14.804;2023-04-19T14:49:43;1.48;;;0.90;;
18838;SDS011;9548;56.920;14.804;2023-04-19T14:52:11;3.60;;;0.80;;
18838;SDS011;9548;56.920;14.804;2023-04-19T14:54:38;4.38;;;0.70;;
18838;SDS011;9548;56.920;14.804;2023-04-19T14:57:06;3.92;;;0.70;;
18838;SDS011;9548;56.920;14.804;2023-04-19T14:59:33;3.33;;;0.90;;
18838;SDS011;9548;56.920;14.804;2023-04-19T15:02:00;0.90;;;0.88;;
18838;SDS011;9548;56.920;14.804;2023-04-19T15:04:27;4.22;;;0.80;;